sensor_id;sensor_type;location;lat;lon;timestamp;temperature;humidity
5118;DHT22;2578;51.622;7.046;2023-02-28T00:01:00;-1.10;99.90
5118;DHT22;2578;51.622;7.046;2023-02-28T00:03:26;-1.10;1.00
5118;DHT22;2578;51.622;7.046;2023-02-28T00:05:51;-1.10;99.90
5118;DHT22;2578;51.622;7.046;2023-02-28T00:08:17;-1.00;1.00
5118;DHT22;2578;51.622;7.046;2023-02-28T00:10:43;-1.10;1.00
5118;DHT22;2578;51.622;7.046;2023-02-28T00:13:08;-1.10;7.20
5118;DHT22;2578;51.622;7.046;2023-02-28T00:15:34;-1.20;32.80
5118;DHT22;2578;51.622;7.046;2023-02-28T00:18:01;-1.30;1.00
5118;DHT22;2578;51.622;7.046;2023-02-28T00:20:27;-1.30;99.90
5118;DHT22;2578;51.622;7.046;2023-02-28T00:22:53;-1.30;99.90
5118;DHT22;2578;51.622;7.046;2023-02-28T00:25:21;-1.30;1.00
5118;DHT22;2578;51.622;7.046;2023-02-28T00:27:47;-1.40;4.60
5118;DHT22;2578;51.622;7.046;2023-02-28T00:30:18;-1.40;8.00
5118;DHT22;2578;51.622;7.046;2023-02-28T00:32:44;-1.40;17.40
5118;DHT22;2578;51.622;7.046;2023-02-28T00:35:10;-1.50;78.10
5118;DHT22;2578;51.622;7.046;2023-02-28T00:37:36;-1.70;7.90
5118;DHT22;2578;51.622;7.046;2023-02-28T00:40:03;-1.80;40.30
5118;DHT22;2578;51.622;7.046;2023-02-28T00:42:31;-1.70;63.40
5118;DHT22;2578;51.622;7.046;2023-02-28T00:44:56;-1.80;99.90
5118;DHT22;2578;51.622;7.046;2023-02-28T00:47:22;-1.80;99.90
5118;DHT22;2578;51.622;7.046;2023-02-28T00:49:47;-1.80;99.90
5118;DHT22;2578;51.622;7.046;2023-02-28T00:52:13;-1.70;99.90
5118;DHT22;2578;51.622;7.046;2023-02-28T00:54:39;-1.70;89.40
5118;DHT22;2578;51.622;7.046;2023-02-28T00:57:04;-1.70;86.80
5118;DHT22;2578;51.622;7.046;2023-02-28T00:59:30;-1.50;19.10
5118;DHT22;2578;51.622;7.046;2023-02-28T01:01:56;-1.70;99.90
5118;DHT22;2578;51.622;7.046;2023-02-28T01:04:21;-1.70;74.40
5118;DHT22;2578;51.622;7.046;2023-02-28T01:06:47;-1.70;99.90
5118;DHT22;2578;51.622;7.046;2023-02-28T01:09:13;-1.80;25.00
5118;DHT22;2578;51.622;7.046;2023-02-28T01:11:38;-1.80;51.90
5118;DHT22;2578;51.622;7.046;2023-02-28T01:14:06;-1.80;33.10
5118;DHT22;2578;51.622;7.046;2023-02-28T01:16:31;-1.90;1.00
5118;DHT22;2578;51.622;7.046;2023-02-28T01:18:57;-1.80;40.40
5118;DHT22;2578;51.622;7.046;2023-02-28T01:21:23;-1.90;21.60
5118;DHT22;2578;51.622;7.046;2023-02-28T01:23:49;-2.00;23.80
5118;DHT22;2578;51.622;7.046;2023-02-28T01:26:19;-2.00;29.00
5118;DHT22;2578;51.622;7.046;2023-02-28T01:28:45;-2.00;18.20
5118;DHT22;2578;51.622;7.046;2023-02-28T01:31:11;-2.10;1.00
5118;DHT22;2578;51.622;7.046;2023-02-28T01:33:37;-2.20;1.90
5118;DHT22;2578;51.622;7.046;2023-02-28T01:36:12;-2.20;22.70
5118;DHT22;2578;51.622;7.046;2023-02-28T01:38:38;-2.20;23.20
5118;DHT22;2578;51.622;7.046;2023-02-28T01:41:05;-2.20;99.90
5118;DHT22;2578;51.622;7.046;2023-02-28T01:46:07;-2.30;99.90
5118;DHT22;2578;51.622;7.046;2023-02-28T01:48:36;-2.50;99.90
5118;DHT22;2578;51.622;7.046;2023-02-28T01:51:13;-2.70;99.90
5118;DHT22;2578;51.622;7.046;2023-02-28T01:53:45;-2.70;99.90
5118;DHT22;2578;51.622;7.046;2023-02-28T01:56:14;-2.70;1.00
5118;DHT22;2578;51.622;7.046;2023-02-28T01:58:47;-2.80;99.90
5118;DHT22;2578;51.622;7.046;2023-02-28T02:01:12;-2.80;99.90
5118;DHT22;2578;51.622;7.046;2023-02-28T02:03:50;-2.80;99.90
5118;DHT22;2578;51.622;7.046;2023-02-28T02:06:27;-2.90;99.90
5118;DHT22;2578;51.622;7.046;2023-02-28T02:08:54;-3.00;56.20
5118;DHT22;2578;51.622;7.046;2023-02-28T02:11:22;-3.10;99.90
5118;DHT22;2578;51.622;7.046;2023-02-28T02:14:04;-3.10;99.90
5118;DHT22;2578;51.622;7.046;2023-02-28T02:16:49;-3.20;1.00
5118;DHT22;2578;51.622;7.046;2023-02-28T02:28:20;-3.40;99.90
5118;DHT22;2578;51.622;7.046;2023-02-28T02:31:27;-3.40;99.90
5118;DHT22;2578;51.622;7.046;2023-02-28T02:37:26;-3.30;99.90
5118;DHT22;2578;51.622;7.046;2023-02-28T02:40:08;-3.40;1.00
5118;DHT22;2578;51.622;7.046;2023-02-28T02:42:41;-3.50;99.90
5118;DHT22;2578;51.622;7.046;2023-02-28T02:45:21;-1.80;1.00
5118;DHT22;2578;51.622;7.046;2023-02-28T02:47:50;-2.50;1.00
5118;DHT22;2578;51.622;7.046;2023-02-28T02:50:24;-3.50;99.90
5118;DHT22;2578;51.622;7.046;2023-02-28T02:52:54;-3.50;99.90
5118;DHT22;2578;51.622;7.046;2023-02-28T02:55:22;-3.50;1.00
5118;DHT22;2578;51.622;7.046;2023-02-28T02:57:55;-3.50;99.90
5118;DHT22;2578;51.622;7.046;2023-02-28T03:00:26;-3.80;99.90
5118;DHT22;2578;51.622;7.046;2023-02-28T03:02:56;-3.80;1.00
5118;DHT22;2578;51.622;7.046;2023-02-28T03:05:50;-3.90;99.90
5118;DHT22;2578;51.622;7.046;2023-02-28T03:08:16;-3.80;99.90
5118;DHT22;2578;51.622;7.046;2023-02-28T03:10:44;-3.90;99.90
5118;DHT22;2578;51.622;7.046;2023-02-28T03:27:31;-3.90;1.00
5118;DHT22;2578;51.622;7.046;2023-02-28T03:30:39;-3.90;1.00
5118;DHT22;2578;51.622;7.046;2023-02-28T03:35:28;-4.10;1.00
5118;DHT22;2578;51.622;7.046;2023-02-28T03:38:05;-4.20;99.90
5118;DHT22;2578;51.622;7.046;2023-02-28T03:40:34;-4.10;37.60
5118;DHT22;2578;51.622;7.046;2023-02-28T03:43:08;-4.10;99.90
5118;DHT22;2578;51.622;7.046;2023-02-28T03:45:37;-4.10;99.90
5118;DHT22;2578;51.622;7.046;2023-02-28T03:50:44;-4.00;99.90
5118;DHT22;2578;51.622;7.046;2023-02-28T03:53:16;-4.00;99.90
5118;DHT22;2578;51.622;7.046;2023-02-28T03:55:59;-4.00;99.90
5118;DHT22;2578;51.622;7.046;2023-02-28T03:58:31;-4.20;99.90
5118;DHT22;2578;51.622;7.046;2023-02-28T04:01:08;-4.20;99.90
5118;DHT22;2578;51.622;7.046;2023-02-28T04:03:36;-4.20;99.90
5118;DHT22;2578;51.622;7.046;2023-02-28T04:06:03;-4.20;99.90
5118;DHT22;2578;51.622;7.046;2023-02-28T04:08:29;-4.10;99.90
5118;DHT22;2578;51.622;7.046;2023-02-28T04:11:06;-4.20;99.90
5118;DHT22;2578;51.622;7.046;2023-02-28T04:13:34;-4.20;99.90
5118;DHT22;2578;51.622;7.046;2023-02-28T04:15:59;-4.30;99.90
5118;DHT22;2578;51.622;7.046;2023-02-28T04:18:25;-4.20;99.90
5118;DHT22;2578;51.622;7.046;2023-02-28T04:20:50;-3.90;99.90
5118;DHT22;2578;51.622;7.046;2023-02-28T04:23:16;-3.80;99.90
5118;DHT22;2578;51.622;7.046;2023-02-28T04:25:42;-3.70;99.90
5118;DHT22;2578;51.622;7.046;2023-02-28T04:28:07;-3.50;99.90
5118;DHT22;2578;51.622;7.046;2023-02-28T04:30:33;-3.40;99.90
5118;DHT22;2578;51.622;7.046;2023-02-28T04:33:00;-3.40;99.90
5118;DHT22;2578;51.622;7.046;2023-02-28T04:35:26;-3.40;99.90
5118;DHT22;2578;51.622;7.046;2023-02-28T04:37:51;-3.40;99.90
5118;DHT22;2578;51.622;7.046;2023-02-28T04:40:17;-3.40;99.90
5118;DHT22;2578;51.622;7.046;2023-02-28T04:42:42;-3.40;99.90
5118;DHT22;2578;51.622;7.046;2023-02-28T04:45:08;-3.40;99.90
5118;DHT22;2578;51.622;7.046;2023-02-28T04:47:36;-3.50;99.90
5118;DHT22;2578;51.622;7.046;2023-02-28T04:50:02;-2.70;99.90
5118;DHT22;2578;51.622;7.046;2023-02-28T04:52:28;-3.30;99.90
5118;DHT22;2578;51.622;7.046;2023-02-28T04:54:54;-3.30;99.90
5118;DHT22;2578;51.622;7.046;2023-02-28T04:57:19;-3.20;99.90
5118;DHT22;2578;51.622;7.046;2023-02-28T04:59:45;-3.20;99.90
5118;DHT22;2578;51.622;7.046;2023-02-28T05:02:10;-3.20;99.90
5118;DHT22;2578;51.622;7.046;2023-02-28T05:04:36;-3.20;99.90
5118;DHT22;2578;51.622;7.046;2023-02-28T05:07:02;-3.20;99.90
5118;DHT22;2578;51.622;7.046;2023-02-28T05:09:28;-3.20;99.90
5118;DHT22;2578;51.622;7.046;2023-02-28T05:11:54;-3.10;99.90
5118;DHT22;2578;51.622;7.046;2023-02-28T05:14:20;-3.10;99.90
5118;DHT22;2578;51.622;7.046;2023-02-28T05:16:46;-3.10;99.90
5118;DHT22;2578;51.622;7.046;2023-02-28T05:19:11;-3.20;99.90
5118;DHT22;2578;51.622;7.046;2023-02-28T05:21:40;-3.10;99.90
5118;DHT22;2578;51.622;7.046;2023-02-28T05:24:09;-3.10;99.90
5118;DHT22;2578;51.622;7.046;2023-02-28T05:29:57;-3.20;99.90
5118;DHT22;2578;51.622;7.046;2023-02-28T05:32:24;-3.30;99.90
5118;DHT22;2578;51.622;7.046;2023-02-28T05:34:49;-3.30;99.90
5118;DHT22;2578;51.622;7.046;2023-02-28T05:37:15;-3.30;99.90
5118;DHT22;2578;51.622;7.046;2023-02-28T05:39:42;-3.10;99.90
5118;DHT22;2578;51.622;7.046;2023-02-28T05:42:08;-3.20;99.90
5118;DHT22;2578;51.622;7.046;2023-02-28T05:44:34;-3.10;99.90
5118;DHT22;2578;51.622;7.046;2023-02-28T05:47:00;-3.10;99.90
5118;DHT22;2578;51.622;7.046;2023-02-28T05:49:25;-3.00;99.90
5118;DHT22;2578;51.622;7.046;2023-02-28T05:51:51;-3.00;99.90
5118;DHT22;2578;51.622;7.046;2023-02-28T05:54:17;-3.00;99.90
5118;DHT22;2578;51.622;7.046;2023-02-28T05:56:42;-3.10;99.90
5118;DHT22;2578;51.622;7.046;2023-02-28T05:59:13;-3.20;99.90
5118;DHT22;2578;51.622;7.046;2023-02-28T06:01:42;-3.40;99.90
5118;DHT22;2578;51.622;7.046;2023-02-28T06:04:10;-3.40;99.90
5118;DHT22;2578;51.622;7.046;2023-02-28T06:06:36;-3.50;99.90
5118;DHT22;2578;51.622;7.046;2023-02-28T06:09:03;-3.50;99.90
5118;DHT22;2578;51.622;7.046;2023-02-28T06:11:29;-3.70;99.90
5118;DHT22;2578;51.622;7.046;2023-02-28T06:13:56;-3.80;99.90
5118;DHT22;2578;51.622;7.046;2023-02-28T06:16:23;-3.80;99.90
5118;DHT22;2578;51.622;7.046;2023-02-28T06:18:49;-3.80;99.90
5118;DHT22;2578;51.622;7.046;2023-02-28T06:21:14;-3.90;99.90
5118;DHT22;2578;51.622;7.046;2023-02-28T06:23:40;-3.90;99.90
5118;DHT22;2578;51.622;7.046;2023-02-28T06:26:06;-3.70;99.90
5118;DHT22;2578;51.622;7.046;2023-02-28T06:28:31;-3.70;99.90
5118;DHT22;2578;51.622;7.046;2023-02-28T06:30:57;-3.80;99.90
5118;DHT22;2578;51.622;7.046;2023-02-28T06:33:23;-3.80;99.90
5118;DHT22;2578;51.622;7.046;2023-02-28T06:35:52;-3.70;99.90
5118;DHT22;2578;51.622;7.046;2023-02-28T06:38:18;-3.70;99.90
5118;DHT22;2578;51.622;7.046;2023-02-28T06:40:44;-3.30;99.90
5118;DHT22;2578;51.622;7.046;2023-02-28T06:43:10;-3.30;99.90
5118;DHT22;2578;51.622;7.046;2023-02-28T06:45:42;-2.80;99.90
5118;DHT22;2578;51.622;7.046;2023-02-28T06:48:08;-2.50;99.90
5118;DHT22;2578;51.622;7.046;2023-02-28T06:50:34;-2.10;99.90
5118;DHT22;2578;51.622;7.046;2023-02-28T06:52:59;-2.10;99.90
5118;DHT22;2578;51.622;7.046;2023-02-28T06:55:25;-1.90;99.90
5118;DHT22;2578;51.622;7.046;2023-02-28T06:57:51;-1.60;99.90
5118;DHT22;2578;51.622;7.046;2023-02-28T07:00:17;-1.20;99.90
5118;DHT22;2578;51.622;7.046;2023-02-28T07:02:42;-1.20;99.90
5118;DHT22;2578;51.622;7.046;2023-02-28T07:05:08;-1.10;99.90
5118;DHT22;2578;51.622;7.046;2023-02-28T07:07:34;-0.80;22.10
5118;DHT22;2578;51.622;7.046;2023-02-28T07:10:02;-0.40;99.90
5118;DHT22;2578;51.622;7.046;2023-02-28T07:12:27;-0.20;99.90
5118;DHT22;2578;51.622;7.046;2023-02-28T07:14:53;0.00;99.90
5118;DHT22;2578;51.622;7.046;2023-02-28T07:17:21;0.30;1.00
5118;DHT22;2578;51.622;7.046;2023-02-28T07:19:46;0.60;99.90
5118;DHT22;2578;51.622;7.046;2023-02-28T07:22:12;0.70;99.90
5118;DHT22;2578;51.622;7.046;2023-02-28T07:24:37;0.80;1.00
5118;DHT22;2578;51.622;7.046;2023-02-28T07:27:03;1.00;99.90
5118;DHT22;2578;51.622;7.046;2023-02-28T07:29:29;1.00;1.00
5118;DHT22;2578;51.622;7.046;2023-02-28T07:31:56;1.40;99.90
5118;DHT22;2578;51.622;7.046;2023-02-28T07:34:22;1.80;99.90
5118;DHT22;2578;51.622;7.046;2023-02-28T07:36:47;2.50;99.90
5118;DHT22;2578;51.622;7.046;2023-02-28T07:39:13;2.80;99.90
5118;DHT22;2578;51.622;7.046;2023-02-28T07:41:38;3.60;99.90
5118;DHT22;2578;51.622;7.046;2023-02-28T07:44:09;3.90;99.40
5118;DHT22;2578;51.622;7.046;2023-02-28T07:46:35;4.40;65.50
5118;DHT22;2578;51.622;7.046;2023-02-28T07:49:01;5.10;1.00
5118;DHT22;2578;51.622;7.046;2023-02-28T07:51:29;5.20;1.00
5118;DHT22;2578;51.622;7.046;2023-02-28T07:53:55;5.50;1.00
5118;DHT22;2578;51.622;7.046;2023-02-28T07:56:21;5.80;99.90
5118;DHT22;2578;51.622;7.046;2023-02-28T07:58:46;6.60;28.80
5118;DHT22;2578;51.622;7.046;2023-02-28T08:01:12;6.20;1.00
5118;DHT22;2578;51.622;7.046;2023-02-28T08:03:39;6.10;1.00
5118;DHT22;2578;51.622;7.046;2023-02-28T08:06:06;6.00;1.20
5118;DHT22;2578;51.622;7.046;2023-02-28T08:08:32;5.80;1.00
5118;DHT22;2578;51.622;7.046;2023-02-28T08:11:02;5.80;1.00
5118;DHT22;2578;51.622;7.046;2023-02-28T08:13:29;5.80;1.00
5118;DHT22;2578;51.622;7.046;2023-02-28T08:15:55;6.00;1.00
5118;DHT22;2578;51.622;7.046;2023-02-28T08:18:22;6.10;1.00
5118;DHT22;2578;51.622;7.046;2023-02-28T08:20:48;6.00;1.00
5118;DHT22;2578;51.622;7.046;2023-02-28T08:23:13;7.80;1.00
5118;DHT22;2578;51.622;7.046;2023-02-28T08:25:39;6.40;1.00
5118;DHT22;2578;51.622;7.046;2023-02-28T08:28:05;6.20;1.00
5118;DHT22;2578;51.622;7.046;2023-02-28T08:30:31;6.30;1.00
5118;DHT22;2578;51.622;7.046;2023-02-28T08:32:56;6.80;1.00
5118;DHT22;2578;51.622;7.046;2023-02-28T08:35:22;5.90;1.00
5118;DHT22;2578;51.622;7.046;2023-02-28T08:37:48;5.60;1.00
5118;DHT22;2578;51.622;7.046;2023-02-28T08:40:14;5.20;1.00
5118;DHT22;2578;51.622;7.046;2023-02-28T08:42:44;5.20;1.00
5118;DHT22;2578;51.622;7.046;2023-02-28T08:45:10;5.40;1.00
5118;DHT22;2578;51.622;7.046;2023-02-28T08:47:36;5.50;1.00
5118;DHT22;2578;51.622;7.046;2023-02-28T08:50:02;6.10;1.00
5118;DHT22;2578;51.622;7.046;2023-02-28T08:52:28;5.50;1.00
5118;DHT22;2578;51.622;7.046;2023-02-28T08:54:54;5.60;1.00
5118;DHT22;2578;51.622;7.046;2023-02-28T08:57:19;5.60;1.00
5118;DHT22;2578;51.622;7.046;2023-02-28T08:59:45;5.60;1.00
5118;DHT22;2578;51.622;7.046;2023-02-28T09:02:13;5.80;1.00
5118;DHT22;2578;51.622;7.046;2023-02-28T09:04:39;5.80;1.00
5118;DHT22;2578;51.622;7.046;2023-02-28T09:07:05;6.00;1.00
5118;DHT22;2578;51.622;7.046;2023-02-28T09:09:31;5.80;1.00
5118;DHT22;2578;51.622;7.046;2023-02-28T09:11:56;6.10;1.00
5118;DHT22;2578;51.622;7.046;2023-02-28T09:14:22;6.30;1.00
5118;DHT22;2578;51.622;7.046;2023-02-28T09:16:48;6.50;1.00
5118;DHT22;2578;51.622;7.046;2023-02-28T09:19:14;6.50;1.00
5118;DHT22;2578;51.622;7.046;2023-02-28T09:21:40;6.70;1.00
5118;DHT22;2578;51.622;7.046;2023-02-28T09:24:06;6.70;1.00
5118;DHT22;2578;51.622;7.046;2023-02-28T09:26:31;6.70;1.00
5118;DHT22;2578;51.622;7.046;2023-02-28T09:28:57;6.90;1.00
5118;DHT22;2578;51.622;7.046;2023-02-28T09:31:26;7.10;1.00
5118;DHT22;2578;51.622;7.046;2023-02-28T09:33:55;8.10;1.00
5118;DHT22;2578;51.622;7.046;2023-02-28T09:36:23;7.30;1.00
5118;DHT22;2578;51.622;7.046;2023-02-28T09:38:49;7.60;1.00
5118;DHT22;2578;51.622;7.046;2023-02-28T09:41:22;7.70;1.00
5118;DHT22;2578;51.622;7.046;2023-02-28T09:43:56;7.80;1.00
5118;DHT22;2578;51.622;7.046;2023-02-28T09:49:04;7.90;1.00
5118;DHT22;2578;51.622;7.046;2023-02-28T09:51:45;6.30;1.00
5118;DHT22;2578;51.622;7.046;2023-02-28T09:54:19;6.30;1.00
5118;DHT22;2578;51.622;7.046;2023-02-28T09:56:51;6.30;1.00
5118;DHT22;2578;51.622;7.046;2023-02-28T10:05:00;6.70;1.00
5118;DHT22;2578;51.622;7.046;2023-02-28T10:10:42;7.10;1.00
5118;DHT22;2578;51.622;7.046;2023-02-28T10:13:25;7.00;1.00
5118;DHT22;2578;51.622;7.046;2023-02-28T10:15:56;7.20;1.00
5118;DHT22;2578;51.622;7.046;2023-02-28T10:18:33;7.30;1.00
5118;DHT22;2578;51.622;7.046;2023-02-28T10:21:01;7.30;1.00
5118;DHT22;2578;51.622;7.046;2023-02-28T10:23:35;7.10;1.00
5118;DHT22;2578;51.622;7.046;2023-02-28T10:26:12;7.20;1.00
5118;DHT22;2578;51.622;7.046;2023-02-28T10:28:39;7.00;1.00
5118;DHT22;2578;51.622;7.046;2023-02-28T10:31:18;7.00;1.00
5118;DHT22;2578;51.622;7.046;2023-02-28T10:33:44;7.10;1.00
5118;DHT22;2578;51.622;7.046;2023-02-28T10:36:19;7.40;1.00
5118;DHT22;2578;51.622;7.046;2023-02-28T10:38:45;6.80;1.00
5118;DHT22;2578;51.622;7.046;2023-02-28T10:41:14;5.20;1.00
5118;DHT22;2578;51.622;7.046;2023-02-28T10:43:42;5.00;1.00
5118;DHT22;2578;51.622;7.046;2023-02-28T10:48:48;5.90;1.00
5118;DHT22;2578;51.622;7.046;2023-02-28T10:51:18;4.70;1.00
5118;DHT22;2578;51.622;7.046;2023-02-28T10:53:54;4.80;1.00
5118;DHT22;2578;51.622;7.046;2023-02-28T10:56:24;4.80;1.00
5118;DHT22;2578;51.622;7.046;2023-02-28T11:01:43;7.00;1.00
5118;DHT22;2578;51.622;7.046;2023-02-28T11:06:47;8.00;1.00
5118;DHT22;2578;51.622;7.046;2023-02-28T11:09:22;9.40;1.00
5118;DHT22;2578;51.622;7.046;2023-02-28T11:11:50;8.00;1.00
5118;DHT22;2578;51.622;7.046;2023-02-28T11:14:30;8.10;1.00
5118;DHT22;2578;51.622;7.046;2023-02-28T11:17:00;9.00;1.00
5118;DHT22;2578;51.622;7.046;2023-02-28T11:19:32;9.70;1.00
5118;DHT22;2578;51.622;7.046;2023-02-28T11:22:04;10.50;1.00
5118;DHT22;2578;51.622;7.046;2023-02-28T11:24:43;10.50;1.00
5118;DHT22;2578;51.622;7.046;2023-02-28T11:29:57;8.80;1.00
5118;DHT22;2578;51.622;7.046;2023-02-28T11:32:25;8.70;1.00
5118;DHT22;2578;51.622;7.046;2023-02-28T11:37:37;8.80;1.00
5118;DHT22;2578;51.622;7.046;2023-02-28T11:40:15;8.80;1.00
5118;DHT22;2578;51.622;7.046;2023-02-28T11:45:48;9.30;1.00
5118;DHT22;2578;51.622;7.046;2023-02-28T11:48:29;9.10;1.00
5118;DHT22;2578;51.622;7.046;2023-02-28T11:57:08;8.40;1.00
5118;DHT22;2578;51.622;7.046;2023-02-28T12:00:35;9.40;1.00
5118;DHT22;2578;51.622;7.046;2023-02-28T12:03:06;7.80;1.00
5118;DHT22;2578;51.622;7.046;2023-02-28T12:08:34;8.00;1.00
5118;DHT22;2578;51.622;7.046;2023-02-28T12:11:31;9.20;1.00
5118;DHT22;2578;51.622;7.046;2023-02-28T12:22:32;6.80;1.00
5118;DHT22;2578;51.622;7.046;2023-02-28T12:27:42;7.40;1.00
5118;DHT22;2578;51.622;7.046;2023-02-28T12:30:25;8.00;1.00
5118;DHT22;2578;51.622;7.046;2023-02-28T12:33:08;8.60;1.00
5118;DHT22;2578;51.622;7.046;2023-02-28T12:35:51;8.60;1.00
5118;DHT22;2578;51.622;7.046;2023-02-28T12:38:26;8.30;1.00
5118;DHT22;2578;51.622;7.046;2023-02-28T12:41:21;8.60;1.00
5118;DHT22;2578;51.622;7.046;2023-02-28T12:44:09;8.60;1.00
5118;DHT22;2578;51.622;7.046;2023-02-28T12:46:46;8.70;1.00
5118;DHT22;2578;51.622;7.046;2023-02-28T12:49:39;8.60;1.00
5118;DHT22;2578;51.622;7.046;2023-02-28T12:52:06;8.10;1.00
5118;DHT22;2578;51.622;7.046;2023-02-28T12:54:44;8.40;1.00
5118;DHT22;2578;51.622;7.046;2023-02-28T13:00:20;7.90;1.00
5118;DHT22;2578;51.622;7.046;2023-02-28T13:10:59;9.40;1.00
5118;DHT22;2578;51.622;7.046;2023-02-28T13:13:27;9.50;1.00
5118;DHT22;2578;51.622;7.046;2023-02-28T13:20:54;8.00;1.00
5118;DHT22;2578;51.622;7.046;2023-02-28T13:23:40;7.80;1.00
5118;DHT22;2578;51.622;7.046;2023-02-28T13:26:07;7.60;1.00
5118;DHT22;2578;51.622;7.046;2023-02-28T13:29:00;8.00;1.00
5118;DHT22;2578;51.622;7.046;2023-02-28T13:31:27;7.80;1.00
5118;DHT22;2578;51.622;7.046;2023-02-28T13:36:29;7.90;1.00
5118;DHT22;2578;51.622;7.046;2023-02-28T13:54:58;8.40;1.00
5118;DHT22;2578;51.622;7.046;2023-02-28T13:57:41;8.40;1.00
5118;DHT22;2578;51.622;7.046;2023-02-28T14:06:23;8.70;1.00
5118;DHT22;2578;51.622;7.046;2023-02-28T14:09:15;8.50;1.00
5118;DHT22;2578;51.622;7.046;2023-02-28T14:11:44;8.30;1.00
5118;DHT22;2578;51.622;7.046;2023-02-28T14:17:08;9.10;1.00
5118;DHT22;2578;51.622;7.046;2023-02-28T14:19:38;9.20;1.00
5118;DHT22;2578;51.622;7.046;2023-02-28T14:33:22;8.70;1.00
5118;DHT22;2578;51.622;7.046;2023-02-28T14:38:33;7.80;1.00
5118;DHT22;2578;51.622;7.046;2023-02-28T14:41:04;7.70;1.00
5118;DHT22;2578;51.622;7.046;2023-02-28T14:43:31;7.80;1.00
5118;DHT22;2578;51.622;7.046;2023-02-28T14:46:02;8.30;1.00
5118;DHT22;2578;51.622;7.046;2023-02-28T14:48:30;7.70;1.00
5118;DHT22;2578;51.622;7.046;2023-02-28T14:51:00;7.90;1.00
5118;DHT22;2578;51.622;7.046;2023-02-28T14:53:29;8.00;1.00
5118;DHT22;2578;51.622;7.046;2023-02-28T14:55:56;7.90;1.00
5118;DHT22;2578;51.622;7.046;2023-02-28T14:58:29;7.90;1.00
5118;DHT22;2578;51.622;7.046;2023-02-28T15:00:58;7.70;1.00
5118;DHT22;2578;51.622;7.046;2023-02-28T15:05:57;8.10;1.00
5118;DHT22;2578;51.622;7.046;2023-02-28T15:08:24;8.20;1.00
5118;DHT22;2578;51.622;7.046;2023-02-28T15:10:58;7.90;1.00
5118;DHT22;2578;51.622;7.046;2023-02-28T15:13:47;8.10;1.00
5118;DHT22;2578;51.622;7.046;2023-02-28T15:16:20;8.20;1.00
5118;DHT22;2578;51.622;7.046;2023-02-28T15:18:50;9.30;1.00
5118;DHT22;2578;51.622;7.046;2023-02-28T15:21:30;7.90;1.00
5118;DHT22;2578;51.622;7.046;2023-02-28T15:26:54;8.10;1.00
5118;DHT22;2578;51.622;7.046;2023-02-28T15:29:23;8.20;1.00
5118;DHT22;2578;51.622;7.046;2023-02-28T15:32:01;8.10;1.00
5118;DHT22;2578;51.622;7.046;2023-02-28T15:34:39;7.80;1.00
5118;DHT22;2578;51.622;7.046;2023-02-28T15:38:03;7.50;1.00
5118;DHT22;2578;51.622;7.046;2023-02-28T15:40:42;7.00;1.00
5118;DHT22;2578;51.622;7.046;2023-02-28T15:43:17;7.00;1.00
5118;DHT22;2578;51.622;7.046;2023-02-28T15:48:32;7.00;1.00
5118;DHT22;2578;51.622;7.046;2023-02-28T15:51:07;7.00;1.00
5118;DHT22;2578;51.622;7.046;2023-02-28T15:53:45;6.90;1.00
5118;DHT22;2578;51.622;7.046;2023-02-28T15:58:45;7.20;1.00
5118;DHT22;2578;51.622;7.046;2023-02-28T16:01:28;7.20;1.00
5118;DHT22;2578;51.622;7.046;2023-02-28T16:03:59;7.30;1.00
5118;DHT22;2578;51.622;7.046;2023-02-28T16:06:40;7.20;1.00
5118;DHT22;2578;51.622;7.046;2023-02-28T16:09:14;6.80;1.00
5118;DHT22;2578;51.622;7.046;2023-02-28T16:11:51;6.40;1.00
5118;DHT22;2578;51.622;7.046;2023-02-28T16:14:26;6.50;1.00
5118;DHT22;2578;51.622;7.046;2023-02-28T16:17:07;6.50;1.00
5118;DHT22;2578;51.622;7.046;2023-02-28T16:19:34;6.50;1.00
5118;DHT22;2578;51.622;7.046;2023-02-28T16:22:00;6.20;1.00
5118;DHT22;2578;51.622;7.046;2023-02-28T16:24:26;6.10;1.00
5118;DHT22;2578;51.622;7.046;2023-02-28T16:26:54;6.00;1.00
5118;DHT22;2578;51.622;7.046;2023-02-28T16:29:32;5.90;1.00
5118;DHT22;2578;51.622;7.046;2023-02-28T16:32:00;5.90;1.00
5118;DHT22;2578;51.622;7.046;2023-02-28T16:34:26;5.80;1.00
5118;DHT22;2578;51.622;7.046;2023-02-28T16:36:52;5.70;1.00
5118;DHT22;2578;51.622;7.046;2023-02-28T16:41:47;5.40;1.00
5118;DHT22;2578;51.622;7.046;2023-02-28T16:44:31;5.40;1.00
5118;DHT22;2578;51.622;7.046;2023-02-28T16:46:59;5.20;1.00
5118;DHT22;2578;51.622;7.046;2023-02-28T16:49:25;5.10;1.00
5118;DHT22;2578;51.622;7.046;2023-02-28T16:51:52;4.90;1.00
5118;DHT22;2578;51.622;7.046;2023-02-28T16:54:18;4.70;1.00
5118;DHT22;2578;51.622;7.046;2023-02-28T16:56:46;4.60;1.00
5118;DHT22;2578;51.622;7.046;2023-02-28T16:59:12;4.40;1.00
5118;DHT22;2578;51.622;7.046;2023-02-28T17:01:39;4.20;1.00
5118;DHT22;2578;51.622;7.046;2023-02-28T17:04:05;4.00;1.00
5118;DHT22;2578;51.622;7.046;2023-02-28T17:06:31;3.90;1.00
5118;DHT22;2578;51.622;7.046;2023-02-28T17:08:58;3.80;1.00
5118;DHT22;2578;51.622;7.046;2023-02-28T17:11:25;3.70;1.00
5118;DHT22;2578;51.622;7.046;2023-02-28T17:13:51;3.60;1.00
5118;DHT22;2578;51.622;7.046;2023-02-28T17:16:22;3.50;1.00
5118;DHT22;2578;51.622;7.046;2023-02-28T17:18:48;3.50;1.00
5118;DHT22;2578;51.622;7.046;2023-02-28T17:21:17;3.20;1.00
5118;DHT22;2578;51.622;7.046;2023-02-28T17:23:43;3.20;1.00
5118;DHT22;2578;51.622;7.046;2023-02-28T17:26:14;3.10;1.00
5118;DHT22;2578;51.622;7.046;2023-02-28T17:28:40;3.00;1.00
5118;DHT22;2578;51.622;7.046;2023-02-28T17:31:05;2.90;1.00
5118;DHT22;2578;51.622;7.046;2023-02-28T17:33:31;2.90;1.00
5118;DHT22;2578;51.622;7.046;2023-02-28T17:35:57;2.70;1.00
5118;DHT22;2578;51.622;7.046;2023-02-28T17:38:22;2.60;1.00
5118;DHT22;2578;51.622;7.046;2023-02-28T17:40:48;2.60;1.00
5118;DHT22;2578;51.622;7.046;2023-02-28T17:43:14;2.60;1.00
5118;DHT22;2578;51.622;7.046;2023-02-28T17:45:40;2.60;1.00
5118;DHT22;2578;51.622;7.046;2023-02-28T17:48:08;2.50;1.00
5118;DHT22;2578;51.622;7.046;2023-02-28T17:50:34;2.20;1.00
5118;DHT22;2578;51.622;7.046;2023-02-28T17:53:00;2.40;1.00
5118;DHT22;2578;51.622;7.046;2023-02-28T17:55:26;2.20;1.00
5118;DHT22;2578;51.622;7.046;2023-02-28T17:57:52;2.80;1.00
5118;DHT22;2578;51.622;7.046;2023-02-28T18:00:18;2.00;1.00
5118;DHT22;2578;51.622;7.046;2023-02-28T18:02:44;2.00;1.00
5118;DHT22;2578;51.622;7.046;2023-02-28T18:05:10;1.80;1.00
5118;DHT22;2578;51.622;7.046;2023-02-28T18:07:39;1.80;1.00
5118;DHT22;2578;51.622;7.046;2023-02-28T18:10:07;1.70;1.00
5118;DHT22;2578;51.622;7.046;2023-02-28T18:12:36;1.60;1.00
5118;DHT22;2578;51.622;7.046;2023-02-28T18:15:03;1.90;1.00
5118;DHT22;2578;51.622;7.046;2023-02-28T18:17:29;1.40;1.00
5118;DHT22;2578;51.622;7.046;2023-02-28T18:19:55;1.30;1.00
5118;DHT22;2578;51.622;7.046;2023-02-28T18:22:21;1.30;1.00
5118;DHT22;2578;51.622;7.046;2023-02-28T18:24:46;1.30;1.00
5118;DHT22;2578;51.622;7.046;2023-02-28T18:27:12;1.20;1.00
5118;DHT22;2578;51.622;7.046;2023-02-28T18:29:38;1.20;1.00
5118;DHT22;2578;51.622;7.046;2023-02-28T18:32:04;1.20;1.00
5118;DHT22;2578;51.622;7.046;2023-02-28T18:34:30;1.20;1.00
5118;DHT22;2578;51.622;7.046;2023-02-28T18:36:56;1.10;1.00
5118;DHT22;2578;51.622;7.046;2023-02-28T18:39:22;1.00;1.00
5118;DHT22;2578;51.622;7.046;2023-02-28T18:41:48;0.90;1.00
5118;DHT22;2578;51.622;7.046;2023-02-28T18:44:14;0.90;1.00
5118;DHT22;2578;51.622;7.046;2023-02-28T18:46:39;1.00;1.00
5118;DHT22;2578;51.622;7.046;2023-02-28T18:49:05;1.00;1.00
5118;DHT22;2578;51.622;7.046;2023-02-28T18:51:31;1.00;1.00
5118;DHT22;2578;51.622;7.046;2023-02-28T18:53:58;1.00;1.00
5118;DHT22;2578;51.622;7.046;2023-02-28T18:56:24;1.10;1.00
5118;DHT22;2578;51.622;7.046;2023-02-28T18:58:51;1.10;1.00
5118;DHT22;2578;51.622;7.046;2023-02-28T19:01:19;1.10;1.00
5118;DHT22;2578;51.622;7.046;2023-02-28T19:03:46;1.10;1.00
5118;DHT22;2578;51.622;7.046;2023-02-28T19:06:13;1.10;1.00
5118;DHT22;2578;51.622;7.046;2023-02-28T19:08:39;1.20;1.00
5118;DHT22;2578;51.622;7.046;2023-02-28T19:11:09;1.30;1.00
5118;DHT22;2578;51.622;7.046;2023-02-28T19:13:35;1.30;1.00